DLH93Y EDDP-EDDF
Flight info
| Callsign | DLH93Y |
|---|---|
| Flight time | 0h 35m |
| Altitude | 22000 |
| Route | EDDP/26R ORTA5N ORTAG T177 ODIPI T157 KERAX KERA5A EDDF/25R |
| Aircraft | B78X/H-VGDW/C |
Departure
| Time | 2026-05-04 15:10 |
|---|---|
| Airport | Leipzig/Halle Airport (EDDP) |
Arrival
| Time | 2026-05-04 15:45 |
|---|---|
| Airport | Frankfurt Main Airport (EDDF) |
| Time | Latitude | Longitude | Altitude | Speed | Heading |
|---|---|---|---|---|---|
| 2026-05-04 14:48 | 51.40944 | 12.24521 | 468 ft | 0 kts | 266° |
| 2026-05-04 14:59 | 51.40944 | 12.24518 | 471 ft | 0 kts | 266° |
| 2026-05-04 14:59 | 51.40944 | 12.24513 | 465 ft | 0 kts | 266° |
| 2026-05-04 14:59 | 51.40944 | 12.24512 | 465 ft | 0 kts | 266° |
| 2026-05-04 15:02 | 51.40944 | 12.24513 | 466 ft | 0 kts | 266° |
| 2026-05-04 15:02 | 51.40945 | 12.24539 | 464 ft | 4 kts | 266° |
| 2026-05-04 15:03 | 51.40945 | 12.24581 | 464 ft | 4 kts | 289° |
| 2026-05-04 15:03 | 51.40933 | 12.24618 | 471 ft | 4 kts | 308° |
| 2026-05-04 15:03 | 51.40916 | 12.24651 | 463 ft | 4 kts | 331° |
| 2026-05-04 15:03 | 51.40901 | 12.24662 | 462 ft | 0 kts | 345° |
| 2026-05-04 15:06 | 51.40920 | 12.24661 | 463 ft | 6 kts | 358° |
| 2026-05-04 15:07 | 51.41073 | 12.24662 | 470 ft | 14 kts | 24° |
| 2026-05-04 15:07 | 51.41103 | 12.24781 | 469 ft | 11 kts | 84° |
| 2026-05-04 15:07 | 51.41109 | 12.24899 | 478 ft | 10 kts | 85° |
| 2026-05-04 15:07 | 51.41114 | 12.25004 | 480 ft | 9 kts | 85° |
| 2026-05-04 15:08 | 51.41123 | 12.25205 | 475 ft | 28 kts | 86° |
| 2026-05-04 15:08 | 51.41137 | 12.25512 | 478 ft | 19 kts | 85° |
| 2026-05-04 15:08 | 51.41201 | 12.25627 | 474 ft | 14 kts | 6° |
| 2026-05-04 15:08 | 51.41293 | 12.25615 | 475 ft | 13 kts | 355° |
| 2026-05-04 15:09 | 51.41383 | 12.25568 | 471 ft | 14 kts | 323° |
| 2026-05-04 15:09 | 51.41398 | 12.25425 | 475 ft | 14 kts | 265° |
| 2026-05-04 15:09 | 51.41389 | 12.25261 | 471 ft | 16 kts | 266° |
| 2026-05-04 15:10 | 51.41287 | 12.23008 | 582 ft | 175 kts | 266° |
| 2026-05-04 15:10 | 51.41193 | 12.20821 | 1216 ft | 213 kts | 266° |
| 2026-05-04 15:10 | 51.41017 | 12.15921 | 3261 ft | 238 kts | 266° |
| 2026-05-04 15:11 | 51.40883 | 12.13196 | 4313 ft | 254 kts | 265° |
| 2026-05-04 15:11 | 51.40728 | 12.10333 | 5571 ft | 259 kts | 265° |
| 2026-05-04 15:11 | 51.40577 | 12.07400 | 6683 ft | 272 kts | 265° |
| 2026-05-04 15:11 | 51.40424 | 12.04385 | 6960 ft | 271 kts | 264° |
| 2026-05-04 15:12 | 51.40273 | 12.01413 | 6952 ft | 269 kts | 265° |
| 2026-05-04 15:12 | 51.40120 | 11.98427 | 6955 ft | 269 kts | 264° |
| 2026-05-04 15:12 | 51.39964 | 11.95435 | 6961 ft | 269 kts | 264° |
| 2026-05-04 15:12 | 51.39808 | 11.92438 | 6961 ft | 270 kts | 264° |
| 2026-05-04 15:13 | 51.39660 | 11.89451 | 7187 ft | 274 kts | 265° |
| 2026-05-04 15:13 | 51.39511 | 11.86405 | 8151 ft | 271 kts | 264° |
| 2026-05-04 15:13 | 51.39361 | 11.83391 | 9593 ft | 271 kts | 264° |
| 2026-05-04 15:13 | 51.39211 | 11.80444 | 10636 ft | 283 kts | 264° |
| 2026-05-04 15:14 | 51.39047 | 11.77226 | 11398 ft | 302 kts | 264° |
| 2026-05-04 15:14 | 51.38879 | 11.73739 | 12080 ft | 324 kts | 266° |
| 2026-05-04 15:14 | 51.39209 | 11.70058 | 12695 ft | 347 kts | 282° |
| 2026-05-04 15:14 | 51.39795 | 11.66245 | 13647 ft | 356 kts | 282° |
| 2026-05-04 15:15 | 51.40410 | 11.62344 | 14622 ft | 362 kts | 282° |
| 2026-05-04 15:15 | 51.41025 | 11.58402 | 15587 ft | 367 kts | 282° |
| 2026-05-04 15:15 | 51.41633 | 11.54434 | 16555 ft | 372 kts | 282° |
| 2026-05-04 15:16 | 51.42887 | 11.46253 | 18445 ft | 382 kts | 282° |
| 2026-05-04 15:16 | 51.43524 | 11.42097 | 19260 ft | 387 kts | 282° |
| 2026-05-04 15:16 | 51.44810 | 11.33654 | 20841 ft | 396 kts | 281° |
| 2026-05-04 15:17 | 51.45466 | 11.29329 | 21590 ft | 401 kts | 281° |
| 2026-05-04 15:17 | 51.46773 | 11.20687 | 21962 ft | 401 kts | 281° |
| 2026-05-04 15:17 | 51.47421 | 11.16384 | 21960 ft | 398 kts | 281° |
| 2026-05-04 15:18 | 51.47828 | 11.12004 | 21973 ft | 396 kts | 270° |
| 2026-05-04 15:18 | 51.47659 | 11.07607 | 21982 ft | 395 kts | 259° |
| 2026-05-04 15:18 | 51.46939 | 11.03412 | 21983 ft | 394 kts | 248° |
| 2026-05-04 15:19 | 51.44392 | 10.95625 | 21983 ft | 394 kts | 241° |
| 2026-05-04 15:19 | 51.43051 | 10.91780 | 21981 ft | 394 kts | 240° |
| 2026-05-04 15:19 | 51.40361 | 10.84120 | 21985 ft | 394 kts | 241° |
| 2026-05-04 15:20 | 51.39021 | 10.80287 | 21982 ft | 394 kts | 240° |
| 2026-05-04 15:20 | 51.37689 | 10.76491 | 21984 ft | 394 kts | 240° |
| 2026-05-04 15:20 | 51.36340 | 10.72657 | 21982 ft | 394 kts | 240° |
| 2026-05-04 15:20 | 51.34990 | 10.68828 | 21983 ft | 395 kts | 240° |
| 2026-05-04 15:21 | 51.33639 | 10.64996 | 21983 ft | 394 kts | 240° |
| 2026-05-04 15:21 | 51.32305 | 10.61218 | 21977 ft | 397 kts | 240° |
| 2026-05-04 15:21 | 51.29598 | 10.53570 | 21983 ft | 396 kts | 240° |
| 2026-05-04 15:22 | 51.28241 | 10.49748 | 21982 ft | 394 kts | 240° |
| 2026-05-04 15:22 | 51.26767 | 10.46058 | 21981 ft | 394 kts | 232° |
| 2026-05-04 15:22 | 51.23330 | 10.39235 | 21982 ft | 394 kts | 231° |
| 2026-05-04 15:23 | 51.21628 | 10.35851 | 21984 ft | 394 kts | 231° |
| 2026-05-04 15:23 | 51.19906 | 10.32447 | 21977 ft | 394 kts | 231° |
| 2026-05-04 15:23 | 51.18183 | 10.29052 | 21982 ft | 394 kts | 230° |
| 2026-05-04 15:23 | 51.16214 | 10.26017 | 21984 ft | 394 kts | 218° |
| 2026-05-04 15:24 | 51.11306 | 10.22144 | 21986 ft | 397 kts | 196° |
| 2026-05-04 15:24 | 51.05815 | 10.21395 | 21981 ft | 399 kts | 184° |
| 2026-05-04 15:25 | 51.03038 | 10.21330 | 21982 ft | 399 kts | 183° |
| 2026-05-04 15:25 | 51.00238 | 10.21291 | 21984 ft | 399 kts | 183° |
| 2026-05-04 15:25 | 50.97461 | 10.21251 | 21985 ft | 399 kts | 183° |
| 2026-05-04 15:26 | 50.91932 | 10.21145 | 21981 ft | 398 kts | 183° |
| 2026-05-04 15:26 | 50.89157 | 10.21097 | 21981 ft | 399 kts | 183° |
| 2026-05-04 15:26 | 50.83733 | 10.20010 | 21999 ft | 394 kts | 200° |
| 2026-05-04 15:27 | 50.81245 | 10.18213 | 21994 ft | 392 kts | 212° |
| 2026-05-04 15:27 | 50.77221 | 10.12420 | 21988 ft | 394 kts | 234° |
| 2026-05-04 15:28 | 50.74606 | 10.04863 | 21983 ft | 394 kts | 242° |
| 2026-05-04 15:28 | 50.73368 | 10.00995 | 21985 ft | 394 kts | 242° |
| 2026-05-04 15:28 | 50.70900 | 9.93263 | 21982 ft | 394 kts | 242° |
| 2026-05-04 15:29 | 50.69669 | 9.89437 | 21840 ft | 395 kts | 242° |
| 2026-05-04 15:30 | 50.64684 | 9.73983 | 21016 ft | 395 kts | 240° |
| 2026-05-04 15:30 | 50.58795 | 9.65160 | 19914 ft | 396 kts | 206° |
| 2026-05-04 15:31 | 50.53633 | 9.61914 | 18972 ft | 400 kts | 202° |
| 2026-05-04 15:31 | 50.51144 | 9.59955 | 18523 ft | 402 kts | 213° |
| 2026-05-04 15:32 | 50.45956 | 9.49798 | 16957 ft | 410 kts | 248° |
| 2026-05-04 15:32 | 50.44286 | 9.41218 | 15858 ft | 414 kts | 252° |
| 2026-05-04 15:33 | 50.42644 | 9.32501 | 14803 ft | 418 kts | 252° |
| 2026-05-04 15:34 | 50.40032 | 9.20016 | 13154 ft | 370 kts | 248° |
| 2026-05-04 15:34 | 50.39189 | 9.16292 | 12556 ft | 351 kts | 249° |
| 2026-05-04 15:34 | 50.37614 | 9.09452 | 11387 ft | 321 kts | 248° |
| 2026-05-04 15:35 | 50.36128 | 9.03093 | 10269 ft | 300 kts | 247° |
| 2026-05-04 15:35 | 50.35432 | 9.00101 | 9720 ft | 292 kts | 247° |
| 2026-05-04 15:35 | 50.34736 | 8.97123 | 9119 ft | 286 kts | 247° |
| 2026-05-04 15:36 | 50.33420 | 8.91499 | 7956 ft | 271 kts | 248° |
| 2026-05-04 15:36 | 50.32760 | 8.88707 | 7408 ft | 274 kts | 246° |
| 2026-05-04 15:36 | 50.31770 | 8.86260 | 7048 ft | 267 kts | 224° |
| 2026-05-04 15:37 | 50.30268 | 8.84624 | 7034 ft | 265 kts | 202° |
| 2026-05-04 15:37 | 50.28474 | 8.84028 | 7016 ft | 264 kts | 181° |
| 2026-05-04 15:37 | 50.26676 | 8.84697 | 7019 ft | 269 kts | 158° |
| 2026-05-04 15:37 | 50.24991 | 8.85991 | 6741 ft | 275 kts | 155° |
| 2026-05-04 15:38 | 50.23329 | 8.87365 | 6119 ft | 268 kts | 154° |
| 2026-05-04 15:38 | 50.21710 | 8.88731 | 5480 ft | 260 kts | 154° |
| 2026-05-04 15:38 | 50.20120 | 8.90080 | 5051 ft | 259 kts | 153° |
| 2026-05-04 15:38 | 50.18528 | 8.91287 | 5001 ft | 259 kts | 167° |
| 2026-05-04 15:39 | 50.16759 | 8.91177 | 4709 ft | 255 kts | 203° |
| 2026-05-04 15:39 | 50.15277 | 8.89721 | 4326 ft | 254 kts | 220° |
| 2026-05-04 15:39 | 50.12742 | 8.86030 | 4001 ft | 229 kts | 234° |
| 2026-05-04 15:40 | 50.11953 | 8.84024 | 3999 ft | 210 kts | 245° |
| 2026-05-04 15:40 | 50.11438 | 8.82045 | 4004 ft | 184 kts | 250° |
| 2026-05-04 15:40 | 50.11024 | 8.80315 | 3996 ft | 156 kts | 250° |
| 2026-05-04 15:40 | 50.10676 | 8.78863 | 3941 ft | 130 kts | 251° |
| 2026-05-04 15:41 | 50.10376 | 8.77610 | 3713 ft | 127 kts | 250° |
| 2026-05-04 15:41 | 50.10023 | 8.76128 | 3670 ft | 175 kts | 251° |
| 2026-05-04 15:41 | 50.09554 | 8.74135 | 3372 ft | 212 kts | 251° |
| 2026-05-04 15:41 | 50.09068 | 8.72110 | 3063 ft | 184 kts | 251° |
| 2026-05-04 15:42 | 50.08651 | 8.70369 | 2796 ft | 164 kts | 252° |
| 2026-05-04 15:42 | 50.08266 | 8.68762 | 2563 ft | 151 kts | 252° |
| 2026-05-04 15:42 | 50.07873 | 8.67105 | 2349 ft | 182 kts | 252° |
| 2026-05-04 15:42 | 50.07434 | 8.65291 | 2080 ft | 165 kts | 251° |
| 2026-05-04 15:43 | 50.07057 | 8.63723 | 1797 ft | 151 kts | 253° |
| 2026-05-04 15:43 | 50.06692 | 8.62187 | 1541 ft | 150 kts | 254° |
| 2026-05-04 15:43 | 50.06337 | 8.60686 | 1353 ft | 149 kts | 254° |
| 2026-05-04 15:43 | 50.05975 | 8.59157 | 1147 ft | 152 kts | 252° |
| 2026-05-04 15:44 | 50.05732 | 8.58137 | 999 ft | 152 kts | 252° |
| 2026-05-04 15:44 | 50.05259 | 8.56105 | 755 ft | 149 kts | 253° |
| 2026-05-04 15:44 | 50.05011 | 8.55104 | 636 ft | 146 kts | 253° |
| 2026-05-04 15:44 | 50.04544 | 8.53168 | 370 ft | 137 kts | 253° |
| 2026-05-04 15:45 | 50.04264 | 8.52010 | 357 ft | 90 kts | 253° |
| 2026-05-04 15:45 | 50.04140 | 8.51506 | 359 ft | 60 kts | 247° |
| 2026-05-04 15:45 | 50.04036 | 8.51131 | 358 ft | 22 kts | 237° |
| 2026-05-04 15:45 | 50.03979 | 8.51022 | 361 ft | 3 kts | 229° |
| 2026-05-04 15:46 | 50.03929 | 8.50950 | 356 ft | 16 kts | 221° |
| 2026-05-04 15:46 | 50.03848 | 8.50849 | 360 ft | 10 kts | 210° |
| 2026-05-04 15:46 | 50.03795 | 8.50857 | 359 ft | 6 kts | 155° |
| 2026-05-04 15:46 | 50.03782 | 8.50902 | 360 ft | 4 kts | 97° |
| 2026-05-04 15:47 | 50.03788 | 8.50950 | 359 ft | 5 kts | 76° |
| 2026-05-04 15:47 | 50.03800 | 8.51008 | 358 ft | 6 kts | 71° |
| 2026-05-04 15:47 | 50.03854 | 8.51237 | 359 ft | 36 kts | 70° |
| 2026-05-04 15:47 | 50.03940 | 8.51602 | 357 ft | 36 kts | 70° |
| 2026-05-04 15:48 | 50.04025 | 8.51959 | 361 ft | 35 kts | 69° |
| 2026-05-04 15:48 | 50.04114 | 8.52319 | 360 ft | 35 kts | 69° |
| 2026-05-04 15:48 | 50.04284 | 8.53027 | 358 ft | 35 kts | 69° |
| 2026-05-04 15:49 | 50.04370 | 8.53380 | 356 ft | 35 kts | 69° |
| 2026-05-04 15:49 | 50.04412 | 8.53748 | 359 ft | 34 kts | 84° |
| 2026-05-04 15:49 | 50.04435 | 8.54113 | 353 ft | 34 kts | 84° |
| 2026-05-04 15:49 | 50.04451 | 8.54416 | 356 ft | 22 kts | 90° |
| 2026-05-04 15:50 | 50.04406 | 8.54646 | 361 ft | 23 kts | 124° |
| 2026-05-04 15:50 | 50.04280 | 8.54792 | 360 ft | 23 kts | 158° |
| 2026-05-04 15:50 | 50.04140 | 8.54870 | 359 ft | 6 kts | 159° |
| 2026-05-04 15:50 | 50.04139 | 8.54870 | 356 ft | 0 kts | 159° |
| 2026-05-04 15:51 | 50.04138 | 8.54871 | 356 ft | 1 kts | 159° |
| 2026-05-04 15:51 | 50.04067 | 8.54912 | 360 ft | 15 kts | 159° |
| 2026-05-04 15:51 | 50.03962 | 8.54974 | 356 ft | 16 kts | 159° |
| 2026-05-04 15:52 | 50.03862 | 8.55054 | 361 ft | 16 kts | 129° |
| 2026-05-04 15:52 | 50.03871 | 8.55205 | 358 ft | 15 kts | 70° |
| 2026-05-04 15:52 | 50.03907 | 8.55362 | 357 ft | 16 kts | 70° |
| 2026-05-04 15:52 | 50.03947 | 8.55531 | 354 ft | 17 kts | 70° |
| 2026-05-04 15:53 | 50.03989 | 8.55711 | 359 ft | 18 kts | 69° |
| 2026-05-04 15:53 | 50.04036 | 8.55905 | 359 ft | 20 kts | 68° |
| 2026-05-04 15:53 | 50.04048 | 8.55951 | 355 ft | 0 kts | 68° |
| 2026-05-04 15:54 | 50.04058 | 8.55991 | 356 ft | 21 kts | 68° |
| 2026-05-04 15:54 | 50.04118 | 8.56239 | 360 ft | 26 kts | 70° |
| 2026-05-04 15:54 | 50.04185 | 8.56522 | 358 ft | 27 kts | 70° |
| 2026-05-04 15:54 | 50.04244 | 8.56761 | 361 ft | 12 kts | 60° |
| 2026-05-04 15:55 | 50.04310 | 8.56818 | 356 ft | 11 kts | 11° |
| 2026-05-04 15:55 | 50.04347 | 8.56828 | 359 ft | 0 kts | 9° |
| 2026-05-04 15:55 | 50.04350 | 8.56829 | 359 ft | 1 kts | 9° |
| 2026-05-04 15:56 | 50.04404 | 8.56844 | 358 ft | 11 kts | 9° |
| 2026-05-04 15:56 | 50.04484 | 8.56866 | 352 ft | 12 kts | 11° |
| 2026-05-04 15:56 | 50.04559 | 8.56891 | 358 ft | 8 kts | 2° |
| 2026-05-04 15:56 | 50.04585 | 8.56844 | 359 ft | 5 kts | 292° |
| 2026-05-04 15:57 | 50.04594 | 8.56808 | 360 ft | 0 kts | 292° |